createdAt,value
2018-09-08T00:01:50.157Z,101959.91
2018-09-08T00:04:18.844Z,101963.09
2018-09-08T00:06:51.590Z,101953.50
2018-09-08T00:09:20.230Z,101957.44
2018-09-08T00:11:48.875Z,101959.92
2018-09-08T00:14:17.555Z,101961.69
2018-09-08T00:16:51.472Z,101953.50
2018-09-08T00:19:25.156Z,101958.70
2018-09-08T00:21:59.016Z,101952.13
2018-09-08T00:24:32.969Z,101951.27
2018-09-08T00:27:00.670Z,101953.99
2018-09-08T00:29:37.387Z,101958.45
2018-09-08T00:32:09.767Z,101962.48
2018-09-08T00:34:38.684Z,101964.70
2018-09-08T00:37:07.406Z,101963.80
2018-09-08T00:39:36.078Z,101958.09
2018-09-08T00:42:04.758Z,101966.82
2018-09-08T00:44:33.443Z,101967.73
2018-09-08T00:47:02.144Z,101963.48
2018-09-08T00:49:30.837Z,101973.23
2018-09-08T00:51:59.488Z,101971.20
2018-09-08T00:54:28.152Z,101964.39
2018-09-08T00:56:56.824Z,101959.28
2018-09-08T00:59:25.504Z,101952.89
2018-09-08T01:01:54.170Z,101963.55
2018-09-08T01:04:22.827Z,101957.59
2018-09-08T01:06:51.505Z,101952.42
2018-09-08T01:09:20.141Z,101952.57
2018-09-08T01:11:48.819Z,101956.97
2018-09-08T01:14:17.476Z,101959.64
2018-09-08T01:16:46.136Z,101957.11
2018-09-08T01:19:16.077Z,101955.34
2018-09-08T01:21:46.343Z,101951.91
2018-09-08T01:24:15.017Z,101953.72
2018-09-08T01:26:43.691Z,101949.83
2018-09-08T01:29:12.419Z,101955.17
2018-09-08T01:31:41.067Z,101950.78
2018-09-08T01:34:09.751Z,101948.66
2018-09-08T01:36:38.443Z,101941.73
2018-09-08T01:39:08.046Z,101945.22
2018-09-08T01:41:36.759Z,101941.33
2018-09-08T01:44:05.648Z,101944.36
2018-09-08T01:46:34.299Z,101938.66
2018-09-08T01:49:02.981Z,101935.63
2018-09-08T01:51:31.670Z,101931.69
2018-09-08T01:54:00.339Z,101935.54
2018-09-08T01:56:29.023Z,101936.85
2018-09-08T01:58:57.696Z,101938.16
2018-09-08T02:01:26.363Z,101938.56
2018-09-08T02:03:55.000Z,101936.39
2018-09-08T02:06:23.697Z,101932.91
2018-09-08T02:08:52.351Z,101936.03
2018-09-08T02:11:21.049Z,101940.79
2018-09-08T02:13:49.703Z,101937.80
2018-09-08T02:16:18.357Z,101941.28
2018-09-08T02:18:47.052Z,101942.05
2018-09-08T02:21:15.700Z,101942.11
2018-09-08T02:23:44.363Z,101942.11
2018-09-08T02:26:13.071Z,101940.79
2018-09-08T02:28:41.708Z,101944.27
2018-09-08T02:31:10.367Z,101940.34
2018-09-08T02:33:39.032Z,101938.16
2018-09-08T02:36:07.724Z,101939.11
2018-09-08T02:38:36.412Z,101944.36
2018-09-08T02:41:05.131Z,101939.63
2018-09-08T02:43:33.787Z,101936.17
2018-09-08T02:46:02.467Z,101936.62
2018-09-08T02:48:31.117Z,101941.87
2018-09-08T02:50:58.513Z,101939.80
2018-09-08T02:53:25.831Z,101934.91
2018-09-08T02:55:53.197Z,101933.61
2018-09-08T02:58:20.531Z,101926.19
2018-09-08T03:00:47.849Z,101937.17
2018-09-08T03:03:15.183Z,101936.77
2018-09-08T03:05:42.508Z,101939.00
2018-09-08T03:08:09.827Z,101937.32
2018-09-08T03:10:37.173Z,101927.88
2018-09-08T03:13:04.492Z,101936.30
2018-09-08T03:15:31.831Z,101930.28
2018-09-08T03:17:59.424Z,101932.19
2018-09-08T03:20:26.747Z,101928.80
2018-09-08T03:22:54.088Z,101924.55
2018-09-08T03:25:21.438Z,101922.83
2018-09-08T03:27:48.772Z,101917.67
2018-09-08T03:30:16.111Z,101914.19
2018-09-08T03:32:43.433Z,101914.64
2018-09-08T03:35:10.771Z,101917.81
2018-09-08T03:37:38.136Z,101913.56
2018-09-08T03:40:05.463Z,101911.85
2018-09-08T03:42:32.795Z,101906.61
2018-09-08T03:45:00.137Z,101909.23
2018-09-08T03:47:27.482Z,101910.08
2018-09-08T03:49:54.813Z,101907.01
2018-09-08T03:52:22.236Z,101906.61
2018-09-08T03:54:49.592Z,101907.52
2018-09-08T03:57:16.943Z,101894.17
2018-09-08T03:59:54.804Z,101897.65
2018-09-08T04:02:22.237Z,101896.80
2018-09-08T04:04:50.883Z,101902.09
2018-09-08T04:07:19.573Z,101900.02
2018-09-08T04:09:51.748Z,101908.88
2018-09-08T04:12:20.501Z,101906.27
2018-09-08T04:14:49.121Z,101908.12
2018-09-08T04:17:17.804Z,101908.17
2018-09-08T04:19:46.495Z,101911.28
2018-09-08T04:22:15.143Z,101912.64
2018-09-08T04:24:43.854Z,101904.00
2018-09-08T04:27:12.516Z,101901.44
2018-09-08T04:29:41.173Z,101900.21
2018-09-08T04:32:09.839Z,101898.45
2018-09-08T04:34:38.500Z,101898.04
2018-09-08T04:37:07.173Z,101898.59
2018-09-08T04:39:35.863Z,101903.83
2018-09-08T04:42:04.532Z,101906.05
2018-09-08T04:44:33.241Z,101898.64
2018-09-08T04:47:01.931Z,101896.10
2018-09-08T04:49:30.568Z,101893.02
2018-09-08T04:51:59.220Z,101890.45
2018-09-08T04:54:27.873Z,101889.14
2018-09-08T04:56:56.531Z,101895.24
2018-09-08T04:59:25.252Z,101890.86
2018-09-08T05:01:53.956Z,101895.24
2018-09-08T05:04:22.656Z,101895.70
2018-09-08T05:06:51.440Z,101889.66
2018-09-08T05:09:20.094Z,101895.33
2018-09-08T05:11:48.773Z,101892.70
2018-09-08T05:14:17.435Z,101895.33
2018-09-08T05:16:46.093Z,101892.73
2018-09-08T05:19:14.767Z,101894.49
2018-09-08T05:21:43.383Z,101897.97
2018-09-08T05:24:12.164Z,101898.43
2018-09-08T05:26:40.819Z,101895.80
2018-09-08T05:29:09.479Z,101885.94
2018-09-08T05:31:38.162Z,101897.52
2018-09-08T05:34:06.860Z,101897.52
2018-09-08T05:36:35.492Z,101890.11
2018-09-08T05:39:04.756Z,101896.20
2018-09-08T05:41:33.520Z,101905.82
2018-09-08T05:44:02.168Z,101906.70
2018-09-08T05:46:30.817Z,101912.84
2018-09-08T05:48:59.632Z,101910.31
2018-09-08T05:51:28.260Z,101905.06
2018-09-08T05:53:56.900Z,101906.30
2018-09-08T05:56:25.535Z,101897.12
2018-09-08T05:58:54.211Z,101893.19
2018-09-08T06:01:22.856Z,101888.34
2018-09-08T06:03:51.510Z,101881.27
2018-09-08T06:06:20.376Z,101878.97
2018-09-08T06:08:49.011Z,101881.53
2018-09-08T06:11:17.673Z,101884.56
2018-09-08T06:13:46.333Z,101875.75
2018-09-08T06:16:15.014Z,101880.45
2018-09-08T06:18:43.726Z,101877.32
2018-09-08T06:21:12.448Z,101873.75
2018-09-08T06:23:41.148Z,101879.40
2018-09-08T06:26:09.835Z,101883.73
2018-09-08T06:28:38.718Z,101879.80
2018-09-08T06:31:07.256Z,101879.72
2018-09-08T06:33:36.663Z,101883.56
2018-09-08T06:36:06.373Z,101877.86
2018-09-08T06:38:35.048Z,101886.05
2018-09-08T06:41:03.843Z,101884.99
2018-09-08T06:43:32.634Z,101882.14
2018-09-08T06:46:01.324Z,101889.32
2018-09-08T06:48:30.025Z,101889.32
2018-09-08T06:50:58.711Z,101894.87
2018-09-08T06:53:27.407Z,101889.94
2018-09-08T06:55:56.113Z,101892.97
2018-09-08T06:58:24.843Z,101888.03
2018-09-08T07:00:53.484Z,101883.64
2018-09-08T07:03:22.183Z,101891.82
2018-09-08T07:05:50.820Z,101885.57
2018-09-08T07:08:19.471Z,101885.88
2018-09-08T07:10:48.136Z,101886.28
2018-09-08T07:13:16.820Z,101892.30
2018-09-08T07:15:45.585Z,101894.37
2018-09-08T07:18:14.271Z,101889.53
2018-09-08T07:20:42.973Z,101895.17
2018-09-08T07:23:11.709Z,101896.48
2018-09-08T07:25:40.379Z,101883.88
2018-09-08T07:28:09.068Z,101880.34
2018-09-08T07:30:37.754Z,101881.56
2018-09-08T07:33:06.520Z,101877.02
2018-09-08T07:35:35.199Z,101867.69
2018-09-08T07:38:03.847Z,101880.58
2018-09-08T07:40:32.520Z,101875.48
2018-09-08T07:43:01.215Z,101880.44
2018-09-08T07:45:29.899Z,101878.88
2018-09-08T07:47:58.548Z,101869.84
2018-09-08T07:50:27.588Z,101868.77
2018-09-08T07:52:56.241Z,101859.88
2018-09-08T07:55:25.124Z,101862.72
2018-09-08T07:57:53.800Z,101863.42
2018-09-08T08:00:22.503Z,101860.64
2018-09-08T08:02:51.159Z,101863.11
2018-09-08T08:05:19.868Z,101874.66
2018-09-08T08:07:48.550Z,101873.40
2018-09-08T08:10:17.244Z,101876.94
2018-09-08T08:12:45.940Z,101866.50
2018-09-08T08:15:14.703Z,101866.48
2018-09-08T08:17:43.418Z,101868.56
2018-09-08T08:20:12.199Z,101863.66
2018-09-08T08:22:40.863Z,101870.47
2018-09-08T08:25:09.515Z,101875.94
2018-09-08T08:27:38.199Z,101867.13
2018-09-08T08:30:06.962Z,101868.28
2018-09-08T08:32:35.715Z,101865.39
2018-09-08T08:35:04.525Z,101866.94
2018-09-08T08:37:33.259Z,101864.51
2018-09-08T08:40:01.905Z,101868.98
2018-09-08T08:42:30.576Z,101862.44
2018-09-08T08:44:59.318Z,101857.23
2018-09-08T08:47:27.976Z,101860.75
2018-09-08T08:50:07.827Z,101862.95
2018-09-08T08:52:47.648Z,101860.55
2018-09-08T08:55:14.996Z,101871.20
2018-09-08T08:57:43.684Z,101868.50
2018-09-08T09:00:12.359Z,101871.42
2018-09-08T09:02:41.004Z,101877.14
2018-09-08T09:05:09.656Z,101880.27
2018-09-08T09:07:38.737Z,101879.55
2018-09-08T09:10:07.099Z,101881.59
2018-09-08T09:12:36.161Z,101872.72
2018-09-08T09:15:05.087Z,101876.28
2018-09-08T09:17:33.241Z,101875.13
2018-09-08T09:20:13.016Z,101877.13
2018-09-08T09:22:52.706Z,101878.84
2018-09-08T09:25:21.393Z,101874.72
2018-09-08T09:27:51.120Z,101873.44
2018-09-08T09:30:20.316Z,101870.03
2018-09-08T09:32:48.967Z,101869.13
2018-09-08T09:35:19.023Z,101878.27
2018-09-08T09:37:47.715Z,101871.56
2018-09-08T09:40:17.542Z,101879.40
2018-09-08T09:42:46.207Z,101877.24
2018-09-08T09:45:14.871Z,101866.46
2018-09-08T09:47:43.540Z,101859.95
2018-09-08T09:50:13.034Z,101848.88
2018-09-08T09:52:41.925Z,101835.42
2018-09-08T09:55:10.799Z,101848.45
2018-09-08T09:57:39.445Z,101863.91
2018-09-08T10:00:09.953Z,101867.28
2018-09-08T10:02:45.638Z,101864.08
2018-09-08T10:05:16.458Z,101868.89
2018-09-08T10:07:45.139Z,101865.68
2018-09-08T10:10:15.178Z,101855.42
2018-09-08T10:12:43.914Z,101853.20
2018-09-08T10:15:12.608Z,101858.67
2018-09-08T10:17:42.160Z,101853.41
2018-09-08T10:20:12.893Z,101859.06
2018-09-08T10:22:41.584Z,101853.38
2018-09-08T10:25:12.342Z,101858.30
2018-09-08T10:27:41.308Z,101862.05
2018-09-08T10:30:10.812Z,101863.95
2018-09-08T10:32:39.907Z,101859.88
2018-09-08T10:35:08.579Z,101871.28
2018-09-08T10:37:37.383Z,101864.34
2018-09-08T10:40:06.351Z,101864.69
2018-09-08T10:42:34.983Z,101867.71
2018-09-08T10:45:03.703Z,101862.62
2018-09-08T10:47:32.379Z,101865.63
2018-09-08T10:50:01.066Z,101866.02
2018-09-08T10:52:31.857Z,101865.08
2018-09-08T10:55:00.499Z,101865.45
2018-09-08T10:57:29.145Z,101866.20
2018-09-08T10:59:58.328Z,101866.18
2018-09-08T11:02:27.253Z,101870.14
2018-09-08T11:04:55.708Z,101856.75
2018-09-08T11:07:24.498Z,101862.03
2018-09-08T11:09:53.147Z,101860.34
2018-09-08T11:12:21.958Z,101863.33
2018-09-08T11:14:50.652Z,101865.59
2018-09-08T11:17:19.376Z,101865.59
2018-09-08T11:19:48.071Z,101873.70
2018-09-08T11:22:16.770Z,101875.58
2018-09-08T11:24:45.472Z,101868.63
2018-09-08T11:27:14.136Z,101875.05
2018-09-08T11:29:42.771Z,101866.58
2018-09-08T11:32:11.434Z,101865.81
2018-09-08T11:34:40.156Z,101862.61
2018-09-08T11:37:08.873Z,101866.82
2018-09-08T11:39:37.576Z,101868.31
2018-09-08T11:42:06.288Z,101870.53
2018-09-08T11:44:34.949Z,101861.28
2018-09-08T11:47:03.743Z,101873.78
2018-09-08T11:49:32.394Z,101868.89
2018-09-08T11:52:01.092Z,101877.95
2018-09-08T11:54:29.772Z,101870.14
2018-09-08T11:56:58.509Z,101874.88
2018-09-08T11:59:27.216Z,101858.41
2018-09-08T12:01:55.871Z,101869.85
2018-09-08T12:04:24.581Z,101863.89
2018-09-08T12:06:53.265Z,101865.70
2018-09-08T12:09:21.995Z,101867.75
2018-09-08T12:11:50.626Z,101862.32
2018-09-08T12:14:19.284Z,101868.27
2018-09-08T12:16:48.004Z,101863.64
2018-09-08T12:19:16.693Z,101871.45
2018-09-08T12:21:45.344Z,101867.55
2018-09-08T12:24:13.995Z,101862.72
2018-09-08T12:26:42.636Z,101872.64
2018-09-08T12:29:11.260Z,101874.41
2018-09-08T12:31:39.921Z,101870.18
2018-09-08T12:34:08.609Z,101871.97
2018-09-08T12:36:37.280Z,101872.91
2018-09-08T12:39:08.032Z,101865.23
2018-09-08T12:41:36.715Z,101862.41
2018-09-08T12:44:05.427Z,101870.53
2018-09-08T12:46:34.098Z,101882.31
2018-09-08T12:49:02.748Z,101879.41
2018-09-08T12:51:31.454Z,101874.52
2018-09-08T12:54:00.134Z,101866.44
2018-09-08T12:56:28.815Z,101871.19
2018-09-08T12:58:57.544Z,101874.76
2018-09-08T13:01:26.174Z,101868.12
2018-09-08T13:03:54.876Z,101865.66
2018-09-08T13:06:23.615Z,101866.79
2018-09-08T13:08:52.291Z,101867.53
2018-09-08T13:11:20.967Z,101870.82
2018-09-08T13:13:49.619Z,101855.71
2018-09-08T13:16:18.284Z,101861.72
2018-09-08T13:18:47.169Z,101867.27
2018-09-08T13:21:15.831Z,101866.62
2018-09-08T13:23:44.538Z,101862.52
2018-09-08T13:26:13.255Z,101875.84
2018-09-08T13:28:41.947Z,101869.36
2018-09-08T13:31:10.620Z,101867.42
2018-09-08T13:33:39.326Z,101866.38
2018-09-08T13:36:07.999Z,101866.49
2018-09-08T13:38:36.672Z,101865.09
2018-09-08T13:41:05.337Z,101865.02
2018-09-08T13:43:34.007Z,101859.07
2018-09-08T13:46:02.648Z,101858.88
2018-09-08T13:48:31.319Z,101857.09
2018-09-08T13:50:59.999Z,101854.84
2018-09-08T13:53:28.695Z,101855.00
2018-09-08T13:55:57.364Z,101860.28
2018-09-08T13:58:26.032Z,101857.05
2018-09-08T14:00:54.736Z,101849.78
2018-09-08T14:03:23.404Z,101853.82
2018-09-08T14:05:52.922Z,101854.16
2018-09-08T14:08:21.581Z,101855.56
2018-09-08T14:10:50.256Z,101845.66
2018-09-08T14:13:18.920Z,101851.02
2018-09-08T14:15:47.613Z,101850.83
2018-09-08T14:18:16.307Z,101849.16
2018-09-08T14:20:45.024Z,101844.53
2018-09-08T14:23:13.735Z,101849.91
2018-09-08T14:25:42.475Z,101846.99
2018-09-08T14:28:11.265Z,101852.97
2018-09-08T14:30:39.961Z,101859.77
2018-09-08T14:33:08.622Z,101850.99
2018-09-08T14:35:37.284Z,101847.57
2018-09-08T14:38:05.974Z,101862.28
2018-09-08T14:40:34.656Z,101864.42
2018-09-08T14:43:03.341Z,101860.77
2018-09-08T14:45:31.964Z,101858.33
2018-09-08T14:48:00.600Z,101867.37
2018-09-08T14:50:29.271Z,101869.78
2018-09-08T14:53:01.359Z,101859.06
2018-09-08T14:55:30.071Z,101874.99
2018-09-08T14:57:58.714Z,101878.34
2018-09-08T15:00:27.439Z,101867.03
2018-09-08T15:02:56.489Z,101866.72
2018-09-08T15:05:25.300Z,101864.66
2018-09-08T15:07:53.956Z,101861.75
2018-09-08T15:10:22.619Z,101868.73
2018-09-08T15:12:51.275Z,101869.41
2018-09-08T15:15:20.321Z,101868.39
2018-09-08T15:17:48.984Z,101867.42
2018-09-08T15:20:17.679Z,101870.34
2018-09-08T15:22:46.407Z,101868.75
2018-09-08T15:25:15.101Z,101867.62
2018-09-08T15:27:43.767Z,101867.73
2018-09-08T15:30:12.415Z,101869.59
2018-09-08T15:32:41.097Z,101859.89
2018-09-08T15:35:09.732Z,101863.50
2018-09-08T15:37:38.371Z,101862.91
2018-09-08T15:40:07.128Z,101870.67
2018-09-08T15:42:35.765Z,101866.36
2018-09-08T15:45:04.489Z,101862.39
2018-09-08T15:47:33.128Z,101849.28
2018-09-08T15:50:01.791Z,101850.91
2018-09-08T15:52:30.448Z,101855.62
2018-09-08T15:54:59.122Z,101856.38
2018-09-08T15:57:27.786Z,101845.97
2018-09-08T15:59:56.455Z,101847.19
2018-09-08T16:02:25.216Z,101859.78
2018-09-08T16:04:53.863Z,101871.66
2018-09-08T16:07:22.640Z,101870.71
2018-09-08T16:09:51.297Z,101872.14
2018-09-08T16:12:19.961Z,101859.44
2018-09-08T16:14:48.603Z,101859.97
2018-09-08T16:17:17.308Z,101851.28
2018-09-08T16:19:45.995Z,101844.41
2018-09-08T16:22:14.670Z,101826.14
2018-09-08T16:24:43.344Z,101827.00
2018-09-08T16:27:12.018Z,101833.48
2018-09-08T16:29:40.740Z,101828.96
2018-09-08T16:32:09.379Z,101833.20
2018-09-08T16:34:38.036Z,101842.34
2018-09-08T16:37:06.700Z,101845.62
2018-09-08T16:39:35.352Z,101843.00
2018-09-08T16:42:04.004Z,101844.67
2018-09-08T16:44:32.645Z,101845.42
2018-09-08T16:47:01.303Z,101844.28
2018-09-08T16:49:29.944Z,101841.44
2018-09-08T16:51:58.651Z,101832.97
2018-09-08T16:54:27.311Z,101835.42
2018-09-08T16:56:55.993Z,101835.20
2018-09-08T16:59:24.646Z,101835.39
2018-09-08T17:01:53.295Z,101835.77
2018-09-08T17:04:21.958Z,101825.66
2018-09-08T17:06:50.628Z,101825.38
2018-09-08T17:09:19.304Z,101821.42
2018-09-08T17:11:47.961Z,101816.89
2018-09-08T17:14:16.620Z,101825.32
2018-09-08T17:16:45.363Z,101819.02
2018-09-08T17:19:13.993Z,101819.48
2018-09-08T17:21:42.636Z,101820.05
2018-09-08T17:24:11.360Z,101817.80
2018-09-08T17:26:40.008Z,101822.38
2018-09-08T17:29:08.757Z,101824.09
2018-09-08T17:31:37.450Z,101829.25
2018-09-08T17:34:06.173Z,101825.48
2018-09-08T17:36:34.839Z,101834.30
2018-09-08T17:39:03.757Z,101835.33
2018-09-08T17:41:32.425Z,101830.63
2018-09-08T17:44:01.081Z,101826.32
2018-09-08T17:46:29.756Z,101825.92
2018-09-08T17:48:58.999Z,101821.19
2018-09-08T17:51:27.673Z,101822.02
2018-09-08T17:53:56.331Z,101813.76
2018-09-08T17:56:25.367Z,101818.95
2018-09-08T17:58:54.288Z,101815.86
2018-09-08T18:01:23.068Z,101815.14
2018-09-08T18:03:52.972Z,101817.70
2018-09-08T18:06:21.887Z,101819.95
2018-09-08T18:08:50.515Z,101807.23
2018-09-08T18:11:19.176Z,101815.41
2018-09-08T18:13:47.835Z,101817.66
2018-09-08T18:16:16.486Z,101800.43
2018-09-08T18:18:45.109Z,101812.03
2018-09-08T18:21:13.793Z,101796.02
2018-09-08T18:23:42.523Z,101804.70
2018-09-08T18:26:11.256Z,101786.16
2018-09-08T18:28:39.908Z,101780.41
2018-09-08T18:31:08.561Z,101786.98
2018-09-08T18:33:37.188Z,101781.36
2018-09-08T18:36:05.892Z,101784.45
2018-09-08T18:38:34.573Z,101800.63
2018-09-08T18:41:03.243Z,101806.13
2018-09-08T18:43:31.919Z,101811.86
2018-09-08T18:46:00.596Z,101815.05
2018-09-08T18:48:29.271Z,101816.83
2018-09-08T18:50:57.920Z,101811.20
2018-09-08T18:53:26.573Z,101817.31
2018-09-08T18:55:55.348Z,101818.14
2018-09-08T18:58:23.992Z,101819.95
2018-09-08T19:00:52.686Z,101822.64
2018-09-08T19:03:21.357Z,101818.70
2018-09-08T19:05:50.020Z,101821.80
2018-09-08T19:08:18.656Z,101819.27
2018-09-08T19:10:47.295Z,101825.38
2018-09-08T19:13:15.923Z,101823.27
2018-09-08T19:15:44.579Z,101830.80
2018-09-08T19:18:13.233Z,101839.16
2018-09-08T19:20:42.358Z,101828.34
2018-09-08T19:23:11.016Z,101833.87
2018-09-08T19:25:39.734Z,101835.08
2018-09-08T19:28:08.370Z,101816.84
2018-09-08T19:30:37.075Z,101808.48
2018-09-08T19:33:05.799Z,101811.12
2018-09-08T19:35:38.711Z,101805.92
2018-09-08T19:38:07.680Z,101801.22
2018-09-08T19:40:41.380Z,101803.56
2018-09-08T19:43:10.096Z,101815.56
2018-09-08T19:45:38.804Z,101812.17
2018-09-08T19:48:15.335Z,101799.59
2018-09-08T19:50:44.080Z,101803.59
2018-09-08T19:53:17.956Z,101799.36
2018-09-08T19:55:46.643Z,101802.55
2018-09-08T19:58:20.363Z,101806.09
2018-09-08T20:00:49.043Z,101805.27
2018-09-08T20:03:17.731Z,101813.63
2018-09-08T20:05:46.376Z,101815.46
2018-09-08T20:08:15.062Z,101808.89
2018-09-08T20:10:43.736Z,101811.62
2018-09-08T20:13:12.453Z,101812.08
2018-09-08T20:15:41.141Z,101814.51
2018-09-08T20:18:09.821Z,101808.09
2018-09-08T20:20:38.527Z,101808.55
2018-09-08T20:23:07.207Z,101810.89
2018-09-08T20:25:35.931Z,101811.34
2018-09-08T20:28:04.640Z,101814.07
2018-09-08T20:30:33.282Z,101822.42
2018-09-08T20:33:01.971Z,101827.84
2018-09-08T20:35:30.651Z,101834.50
2018-09-08T20:37:59.327Z,101835.42
2018-09-08T20:40:28.007Z,101835.81
2018-09-08T20:42:56.663Z,101827.14
2018-09-08T20:45:25.416Z,101825.66
2018-09-08T20:47:54.143Z,101819.09
2018-09-08T20:50:22.874Z,101812.32
2018-09-08T20:52:51.630Z,101800.86
2018-09-08T20:55:20.300Z,101785.09
2018-09-08T20:57:48.967Z,101775.13
2018-09-08T21:00:17.636Z,101796.26
2018-09-08T21:02:46.304Z,101789.69
2018-09-08T21:05:14.987Z,101802.33
2018-09-08T21:07:43.739Z,101788.83
2018-09-08T21:10:12.429Z,101791.52
2018-09-08T21:12:41.254Z,101790.67
2018-09-08T21:15:09.967Z,101793.00
2018-09-08T21:17:38.652Z,101789.16
2018-09-08T21:20:07.416Z,101792.70
2018-09-08T21:22:36.078Z,101797.95
2018-09-08T21:25:04.784Z,101801.44
2018-09-08T21:27:33.499Z,101797.50
2018-09-08T21:30:02.150Z,101792.64
2018-09-08T21:32:30.829Z,101801.38
2018-09-08T21:34:59.483Z,101796.94
2018-09-08T21:37:28.274Z,101791.32
2018-09-08T21:39:56.943Z,101791.78
2018-09-08T21:42:25.610Z,101793.09
2018-09-08T21:44:54.278Z,101783.50
2018-09-08T21:47:22.936Z,101793.55
2018-09-08T21:49:51.602Z,101796.64
2018-09-08T21:52:20.291Z,101801.53
2018-09-08T21:54:48.952Z,101800.68
2018-09-08T21:57:17.691Z,101808.10
2018-09-08T21:59:46.358Z,101806.39
2018-09-08T22:02:14.995Z,101802.45
2018-09-08T22:04:43.663Z,101798.97
2018-09-08T22:07:12.412Z,101796.80
2018-09-08T22:09:41.132Z,101794.17
2018-09-08T22:12:11.690Z,101794.27
2018-09-08T22:14:41.257Z,101786.64
2018-09-08T22:17:09.926Z,101798.67
2018-09-08T22:19:38.583Z,101791.73
2018-09-08T22:22:07.275Z,101790.88
2018-09-08T22:24:35.926Z,101791.90
2018-09-08T22:27:04.621Z,101792.36
2018-09-08T22:29:33.284Z,101787.16
2018-09-08T22:32:01.939Z,101792.91
2018-09-08T22:34:30.610Z,101792.48
2018-09-08T22:36:59.275Z,101791.62
2018-09-08T22:39:27.940Z,101783.75
2018-09-08T22:41:56.573Z,101787.33
2018-09-08T22:44:25.255Z,101787.33
2018-09-08T22:46:53.924Z,101782.53
2018-09-08T22:49:22.569Z,101782.13
2018-09-08T22:51:51.275Z,101784.86
2018-09-08T22:54:19.958Z,101791.03
2018-09-08T22:56:48.671Z,101783.86
2018-09-08T22:59:17.317Z,101781.63
2018-09-08T23:01:45.995Z,101785.17
2018-09-08T23:04:14.656Z,101779.92
2018-09-08T23:06:43.343Z,101786.09
2018-09-08T23:09:12.017Z,101786.48
2018-09-08T23:11:40.722Z,101790.03
2018-09-08T23:14:09.377Z,101790.88
2018-09-08T23:16:38.040Z,101786.48
2018-09-08T23:19:06.745Z,101788.72
2018-09-08T23:21:35.392Z,101789.17
2018-09-08T23:24:04.065Z,101783.09
2018-09-08T23:26:32.734Z,101773.05
2018-09-08T23:29:01.379Z,101772.20
2018-09-08T23:31:30.059Z,101773.97
2018-09-08T23:33:58.728Z,101777.45
2018-09-08T23:36:27.409Z,101773.11
2018-09-08T23:38:56.095Z,101765.79
2018-09-08T23:41:24.799Z,101758.83
2018-09-08T23:43:53.495Z,101768.02
2018-09-08T23:46:22.185Z,101765.39
2018-09-08T23:48:50.868Z,101759.78
2018-09-08T23:51:19.509Z,101761.55
2018-09-08T23:53:48.187Z,101755.23
2018-09-08T23:56:16.864Z,101764.63
2018-09-08T23:58:45.541Z,101763.32
